createdAt,value
2023-01-26T00:00:16.001Z,8.757343
2023-01-26T00:05:16.296Z,8.877622
2023-01-26T00:10:16.050Z,8.756028
2023-01-26T00:15:16.344Z,8.660417
2023-01-26T00:20:15.691Z,8.563448
2023-01-26T00:25:15.997Z,8.526027
2023-01-26T00:30:16.233Z,8.504861
2023-01-26T00:35:16.358Z,8.547552
2023-01-26T00:40:15.602Z,8.507042
2023-01-26T00:45:16.016Z,8.569718
2023-01-26T00:50:15.588Z,8.655556
2023-01-26T00:55:16.472Z,8.614789
2023-01-26T01:00:15.549Z,8.521986
2023-01-26T01:05:16.675Z,8.760417
2023-01-26T01:10:16.089Z,8.674658
2023-01-26T01:15:15.737Z,8.554861
2023-01-26T01:20:15.585Z,8.717808
2023-01-26T01:25:15.691Z,8.577241
2023-01-26T01:30:16.723Z,8.442361
2023-01-26T01:35:15.933Z,8.625000
2023-01-26T01:40:15.837Z,8.371528
2023-01-26T01:45:15.487Z,8.283916
2023-01-26T01:50:15.715Z,8.190780
2023-01-26T01:55:16.181Z,8.129371
2023-01-26T02:00:16.491Z,8.075000
2023-01-26T02:05:15.666Z,8.034722
2023-01-26T02:10:16.323Z,7.988889
2023-01-26T02:15:16.398Z,7.925342
2023-01-26T02:20:15.900Z,7.907692
2023-01-26T02:25:16.310Z,7.944755
2023-01-26T02:30:15.849Z,7.949655
2023-01-26T02:35:15.851Z,7.878322
2023-01-26T02:40:15.787Z,7.929167
2023-01-26T02:45:17.322Z,7.756738
2023-01-26T02:50:16.230Z,7.614184
2023-01-26T02:55:16.944Z,7.459028
2023-01-26T03:00:16.439Z,7.354483
2023-01-26T03:05:17.047Z,7.294406
2023-01-26T03:10:16.044Z,7.369930
2023-01-26T03:15:16.029Z,7.473239
2023-01-26T03:20:15.723Z,7.302113
2023-01-26T03:25:15.977Z,7.253103
2023-01-26T03:30:16.072Z,7.521918
2023-01-26T03:35:15.755Z,7.604138
2023-01-26T03:40:16.030Z,7.398611
2023-01-26T03:45:15.923Z,7.398592
2023-01-26T03:50:16.251Z,7.395804
2023-01-26T03:55:15.713Z,7.442069
2023-01-26T04:00:15.976Z,7.618750
2023-01-26T04:05:16.139Z,7.741259
2023-01-26T04:10:16.173Z,7.750350
2023-01-26T04:15:15.984Z,7.893750
2023-01-26T04:20:15.831Z,7.858741
2023-01-26T04:25:16.146Z,7.857343
2023-01-26T04:30:15.978Z,8.021528
2023-01-26T04:35:15.960Z,7.853147
2023-01-26T04:40:15.972Z,7.615493
2023-01-26T04:45:15.630Z,7.544366
2023-01-26T04:50:15.982Z,7.560284
2023-01-26T04:55:15.687Z,7.606338
2023-01-26T05:00:15.860Z,7.786014
2023-01-26T05:05:16.823Z,7.667606
2023-01-26T05:10:16.214Z,7.630282
2023-01-26T05:15:15.538Z,7.620423
2023-01-26T05:20:15.561Z,7.541549
2023-01-26T05:25:15.949Z,7.634043
2023-01-26T05:30:16.993Z,7.601418
2023-01-26T05:35:16.267Z,7.875177
2023-01-26T05:40:16.221Z,7.856115
2023-01-26T05:45:16.818Z,7.677372
2023-01-26T05:50:16.170Z,7.660000
2023-01-26T05:55:16.102Z,7.930070
2023-01-26T06:00:16.430Z,8.206294
2023-01-26T06:05:16.310Z,7.941259
2023-01-26T06:10:15.641Z,8.351049
2023-01-26T06:15:16.106Z,8.344366
2023-01-26T06:20:15.739Z,8.078169
2023-01-26T06:25:15.544Z,7.890909
2023-01-26T06:30:15.800Z,7.550000
2023-01-26T06:35:15.677Z,7.564789
2023-01-26T06:40:17.368Z,7.656338
2023-01-26T06:45:16.365Z,7.489510
2023-01-26T06:50:16.085Z,7.354930
2023-01-26T06:55:16.396Z,7.330282
2023-01-26T07:00:16.771Z,7.391667
2023-01-26T07:05:16.127Z,7.430556
2023-01-26T07:10:16.403Z,7.254225
2023-01-26T07:15:16.174Z,7.231469
2023-01-26T07:20:15.747Z,7.508392
2023-01-26T07:25:16.181Z,7.784828
2023-01-26T07:30:15.610Z,8.082639
2023-01-26T07:35:16.156Z,7.999310
2023-01-26T07:40:16.117Z,7.458333
2023-01-26T07:45:15.911Z,6.996552
2023-01-26T07:50:15.758Z,6.873944
2023-01-26T07:55:16.235Z,6.693007
2023-01-26T08:00:15.649Z,6.906944
2023-01-26T08:05:15.615Z,6.797203
2023-01-26T08:10:16.055Z,6.674306
2023-01-26T08:15:15.745Z,6.650000
2023-01-26T08:20:16.055Z,6.542657
2023-01-26T08:25:16.921Z,6.683803
2023-01-26T08:30:15.988Z,7.158042
2023-01-26T08:35:17.230Z,7.367123
2023-01-26T08:40:16.225Z,7.472917
2023-01-26T08:45:16.184Z,7.262500
2023-01-26T08:50:15.544Z,7.135664
2023-01-26T08:55:16.963Z,6.947917
2023-01-26T09:00:20.822Z,6.774483
2023-01-26T09:05:16.519Z,6.910274
2023-01-26T09:10:16.361Z,6.605517
2023-01-26T09:15:16.262Z,6.668919
2023-01-26T09:20:16.241Z,6.671233
2023-01-26T09:25:15.581Z,6.419178
2023-01-26T09:30:16.504Z,6.378767
2023-01-26T09:35:18.469Z,6.715753
2023-01-26T09:40:16.636Z,6.854054
2023-01-26T09:45:15.797Z,6.853378
2023-01-26T09:50:17.872Z,7.254730
2023-01-26T09:55:16.386Z,7.639597
2023-01-26T10:00:15.873Z,7.970470
2023-01-26T10:05:16.015Z,8.133333
2023-01-26T10:10:15.812Z,8.153691
2023-01-26T10:15:15.869Z,8.000000
2023-01-26T10:20:21.051Z,7.797333
2023-01-26T10:25:15.654Z,7.785906
2023-01-26T10:30:16.278Z,7.818792
2023-01-26T10:35:15.795Z,7.762000
2023-01-26T10:40:16.521Z,7.843624
2023-01-26T10:45:16.091Z,7.793960
2023-01-26T10:50:16.540Z,7.933333
2023-01-26T10:55:16.766Z,8.004000
2023-01-26T11:00:17.239Z,8.080537
2023-01-26T11:05:15.710Z,8.064430
2023-01-26T11:10:16.006Z,7.857718
2023-01-26T11:15:21.718Z,7.266443
2023-01-26T11:20:21.561Z,6.990667
2023-01-26T11:25:16.138Z,7.188591
2023-01-26T11:30:15.708Z,7.208054
2023-01-26T11:35:16.167Z,6.975168
2023-01-26T11:40:16.005Z,6.647651
2023-01-26T11:45:17.316Z,6.638095
2023-01-26T11:50:16.375Z,6.813514
2023-01-26T11:55:15.876Z,7.031333
2023-01-26T12:00:28.927Z,7.200000
2023-01-26T12:05:15.661Z,7.232215
2023-01-26T12:10:16.100Z,7.504000
2023-01-26T12:15:15.818Z,7.499329
2023-01-26T12:20:15.768Z,7.176667
2023-01-26T12:25:28.680Z,7.125503
2023-01-26T12:30:17.142Z,6.728188
2023-01-26T12:35:16.479Z,7.037584
2023-01-26T12:40:15.595Z,7.136242
2023-01-26T12:45:18.365Z,6.913514
2023-01-26T12:50:16.976Z,7.053020
2023-01-26T12:55:16.053Z,6.665068
2023-01-26T13:00:17.256Z,6.451020
2023-01-26T13:05:17.261Z,6.439041
2023-01-26T13:10:16.438Z,6.633103
2023-01-26T13:15:17.682Z,6.257534
2023-01-26T13:20:15.521Z,6.359722
2023-01-26T13:25:17.159Z,6.430345
2023-01-26T13:30:15.872Z,6.258784
2023-01-26T13:35:16.303Z,6.113103
2023-01-26T13:40:16.285Z,6.258219
2023-01-26T13:45:17.128Z,6.283448
2023-01-26T13:50:16.389Z,5.991667
2023-01-26T13:55:16.391Z,5.936552
2023-01-26T14:00:17.343Z,6.271233
2023-01-26T14:05:17.245Z,6.507483
2023-01-26T14:10:15.985Z,6.621622
2023-01-26T14:15:16.765Z,6.776027
2023-01-26T14:20:16.008Z,6.879730
2023-01-26T14:25:16.952Z,6.899315
2023-01-26T14:30:15.771Z,7.093836
2023-01-26T14:35:16.379Z,7.501370
2023-01-26T14:40:22.016Z,7.538776
2023-01-26T14:45:16.901Z,7.648980
2023-01-26T14:50:16.161Z,7.237500
2023-01-26T14:55:16.791Z,7.059060
2023-01-26T15:00:15.646Z,7.149333
2023-01-26T15:05:15.628Z,7.417333
2023-01-26T15:10:16.195Z,7.594631
2023-01-26T15:15:16.295Z,7.743919
2023-01-26T15:20:16.043Z,7.809333
2023-01-26T15:25:15.783Z,7.881333
2023-01-26T15:30:16.872Z,7.975168
2023-01-26T15:35:16.782Z,7.823649
2023-01-26T15:40:16.328Z,7.732215
2023-01-26T15:45:16.115Z,8.029054
2023-01-26T15:50:27.495Z,7.400676
2023-01-26T15:55:16.105Z,6.834694
2023-01-26T16:00:17.328Z,6.345139
2023-01-26T16:05:16.360Z,6.219580
2023-01-26T16:10:16.231Z,6.396503
2023-01-26T16:15:16.667Z,6.692414
2023-01-26T16:20:15.591Z,7.043151
2023-01-26T16:25:16.382Z,7.096599
2023-01-26T16:30:16.389Z,6.732653
2023-01-26T16:35:16.229Z,6.942857
2023-01-26T16:40:15.546Z,7.571622
2023-01-26T16:45:15.978Z,7.943243
2023-01-26T16:50:15.966Z,7.698658
2023-01-26T16:55:15.719Z,7.745205
2023-01-26T17:00:16.683Z,7.401408
2023-01-26T17:05:16.043Z,7.202837
2023-01-26T17:10:16.309Z,6.981429
2023-01-26T17:15:16.937Z,7.251773
2023-01-26T17:20:19.543Z,7.609091
2023-01-26T17:25:17.398Z,7.810417
2023-01-26T17:30:15.692Z,8.300000
2023-01-26T17:35:16.572Z,8.323077
2023-01-26T17:40:17.556Z,7.834028
2023-01-26T17:45:16.385Z,7.725874
2023-01-26T17:50:21.401Z,7.368966
2023-01-26T17:55:15.949Z,6.852482
2023-01-26T18:00:16.419Z,7.054795
2023-01-26T18:05:16.044Z,7.439865
2023-01-26T18:10:15.480Z,7.610417
2023-01-26T18:15:17.611Z,7.889041
2023-01-26T18:20:16.301Z,8.081690
2023-01-26T18:25:16.891Z,7.774648
2023-01-26T18:30:16.417Z,7.280282
2023-01-26T18:35:17.371Z,7.366667
2023-01-26T18:40:16.766Z,7.419014
2023-01-26T18:45:15.701Z,7.604930
2023-01-26T18:50:16.878Z,7.922378
2023-01-26T18:55:16.682Z,8.160000
2023-01-26T19:00:19.336Z,8.352055
2023-01-26T19:05:16.522Z,8.292361
2023-01-26T19:10:16.739Z,8.181818
2023-01-26T19:15:15.829Z,8.187413
2023-01-26T19:20:17.207Z,8.384507
2023-01-26T19:25:21.390Z,8.900000
2023-01-26T19:30:16.187Z,9.069655
2023-01-26T19:35:16.427Z,8.353521
2023-01-26T19:40:17.810Z,8.791724
2023-01-26T19:45:15.565Z,8.467361
2023-01-26T19:50:15.996Z,7.846479
2023-01-26T19:55:16.612Z,7.484615
2023-01-26T20:00:17.407Z,7.313986
2023-01-26T20:05:16.022Z,7.247887
2023-01-26T20:10:16.263Z,7.272535
2023-01-26T20:15:16.283Z,7.359155
2023-01-26T20:20:15.997Z,7.265957
2023-01-26T20:25:16.864Z,7.540288
2023-01-26T20:30:15.713Z,7.665000
2023-01-26T20:35:15.766Z,7.598592
2023-01-26T20:40:15.799Z,7.461972
2023-01-26T20:45:16.819Z,7.364085
2023-01-26T20:50:15.915Z,7.368794
2023-01-26T20:55:16.441Z,7.600000
2023-01-26T21:00:15.876Z,7.705594
2023-01-26T21:05:16.391Z,7.708392
2023-01-26T21:10:16.383Z,7.991549
2023-01-26T21:15:15.781Z,8.325000
2023-01-26T21:20:15.882Z,8.426389
2023-01-26T21:25:16.353Z,8.063380
2023-01-26T21:30:16.298Z,7.966667
2023-01-26T21:35:16.357Z,8.166438
2023-01-26T21:40:16.003Z,8.126712
2023-01-26T21:45:15.656Z,8.423649
2023-01-26T21:50:16.638Z,9.002027
2023-01-26T21:55:16.757Z,8.877241
2023-01-26T22:00:16.645Z,8.323288
2023-01-26T22:05:17.537Z,8.470629
2023-01-26T22:10:16.109Z,8.559441
2023-01-26T22:15:15.688Z,8.376224
2023-01-26T22:20:15.894Z,8.266197
2023-01-26T22:25:16.245Z,8.197241
2023-01-26T22:30:16.171Z,8.310490
2023-01-26T22:35:16.183Z,8.426712
2023-01-26T22:40:20.757Z,8.256164
2023-01-26T22:45:16.881Z,8.186897
2023-01-26T22:50:16.988Z,8.286207
2023-01-26T22:55:16.731Z,8.225352
2023-01-26T23:00:17.046Z,8.013287
2023-01-26T23:05:17.693Z,7.858741
2023-01-26T23:10:16.472Z,7.821831
2023-01-26T23:15:15.724Z,7.935417
2023-01-26T23:20:19.217Z,7.849650
2023-01-26T23:25:17.749Z,7.811189
2023-01-26T23:30:16.594Z,7.768531
2023-01-26T23:35:20.335Z,7.761806
2023-01-26T23:40:16.754Z,7.764138
2023-01-26T23:45:16.798Z,7.694483
2023-01-26T23:50:18.336Z,7.575172
2023-01-26T23:55:17.092Z,7.561111
